ARN weather

Stockholm-Arlanda Airport
Stockholm, Stockholms län, Sweden

Public forecast

Using degrees Celsius for public forecast. Weather courtesy of forecast.io.

METAR (pilot weather report)

Retrieved 2019/04/19 13:50 UTC (20 minutes ago):

ESSA 191350Z 01009KT CAVOK 17/M02 Q1035 NOSIG

TAF (pilot weather forecast)

Retrieved 2019/04/19 12:35 UTC (2 hours ago):

TAF ESSA 191130Z 1912/2012 33009KT CAVOK